Terminal Aerodrome Forecast
Issued by NWS Louisville, KY

Home | Current Version | Previous Version | Text Only | Print | Product List | Glossary On
Versions: 1 2 3 4 5 6 7 8 9 10 11 12 13 14 15 16 17
000
FTUS43 KLMK 172300
TAFLEX
TAF
KLEX 172332Z 1800/1824 VRB05KT P6SM SCT020 BKN250
     FM181500 VRB04KT P6SM FEW020 BKN060=

USA.gov is the U.S. government's official web portal to all federal, state and local government web resources and services.